sensor_id;sensor_type;location;lat;lon;timestamp;P1;durP1;ratioP1;P2;durP2;ratioP2
37641;SDS011;23486;51.956;5.888;2023-04-03T00:02:12;2.28;;;0.60;;
37641;SDS011;23486;51.956;5.888;2023-04-03T00:04:37;4.28;;;0.60;;
37641;SDS011;23486;51.956;5.888;2023-04-03T00:07:03;2.25;;;0.50;;
37641;SDS011;23486;51.956;5.888;2023-04-03T00:09:31;2.78;;;0.52;;
37641;SDS011;23486;51.956;5.888;2023-04-03T00:11:56;1.83;;;0.40;;
37641;SDS011;23486;51.956;5.888;2023-04-03T00:14:22;1.98;;;0.40;;
37641;SDS011;23486;51.956;5.888;2023-04-03T00:16:48;1.58;;;0.40;;
37641;SDS011;23486;51.956;5.888;2023-04-03T00:19:13;3.85;;;0.40;;
37641;SDS011;23486;51.956;5.888;2023-04-03T00:21:39;2.90;;;0.50;;
37641;SDS011;23486;51.956;5.888;2023-04-03T00:24:05;2.08;;;0.50;;
37641;SDS011;23486;51.956;5.888;2023-04-03T00:26:30;4.00;;;0.50;;
37641;SDS011;23486;51.956;5.888;2023-04-03T00:28:56;1.80;;;0.40;;
37641;SDS011;23486;51.956;5.888;2023-04-03T00:31:22;5.43;;;0.50;;
37641;SDS011;23486;51.956;5.888;2023-04-03T00:33:47;3.15;;;0.45;;
37641;SDS011;23486;51.956;5.888;2023-04-03T00:36:13;2.28;;;0.40;;
37641;SDS011;23486;51.956;5.888;2023-04-03T00:38:39;4.95;;;0.80;;
37641;SDS011;23486;51.956;5.888;2023-04-03T00:41:04;5.03;;;0.60;;
37641;SDS011;23486;51.956;5.888;2023-04-03T00:43:30;2.45;;;0.80;;
37641;SDS011;23486;51.956;5.888;2023-04-03T00:45:56;2.15;;;0.60;;
37641;SDS011;23486;51.956;5.888;2023-04-03T00:48:31;3.10;;;0.60;;
37641;SDS011;23486;51.956;5.888;2023-04-03T00:51:04;4.60;;;0.60;;
37641;SDS011;23486;51.956;5.888;2023-04-03T00:53:35;3.53;;;0.50;;
37641;SDS011;23486;51.956;5.888;2023-04-03T00:56:08;4.45;;;0.73;;
37641;SDS011;23486;51.956;5.888;2023-04-03T00:58:37;4.22;;;0.47;;
37641;SDS011;23486;51.956;5.888;2023-04-03T01:01:09;6.65;;;0.73;;
37641;SDS011;23486;51.956;5.888;2023-04-03T01:03:40;5.85;;;0.60;;
37641;SDS011;23486;51.956;5.888;2023-04-03T01:06:06;10.05;;;0.68;;
37641;SDS011;23486;51.956;5.888;2023-04-03T01:08:32;2.95;;;0.52;;
37641;SDS011;23486;51.956;5.888;2023-04-03T01:10:58;4.18;;;0.60;;
37641;SDS011;23486;51.956;5.888;2023-04-03T01:13:28;7.13;;;0.65;;
37641;SDS011;23486;51.956;5.888;2023-04-03T01:15:55;2.08;;;0.60;;
37641;SDS011;23486;51.956;5.888;2023-04-03T01:18:22;3.25;;;0.60;;
37641;SDS011;23486;51.956;5.888;2023-04-03T01:24:14;3.83;;;0.75;;
37641;SDS011;23486;51.956;5.888;2023-04-03T01:26:40;3.03;;;0.52;;
37641;SDS011;23486;51.956;5.888;2023-04-03T01:29:06;3.53;;;0.57;;
37641;SDS011;23486;51.956;5.888;2023-04-03T01:34:12;3.13;;;0.63;;
37641;SDS011;23486;51.956;5.888;2023-04-03T01:36:38;3.33;;;0.60;;
37641;SDS011;23486;51.956;5.888;2023-04-03T01:39:03;3.80;;;0.80;;
37641;SDS011;23486;51.956;5.888;2023-04-03T01:41:29;4.57;;;0.60;;
37641;SDS011;23486;51.956;5.888;2023-04-03T01:43:55;1.98;;;0.40;;
37641;SDS011;23486;51.956;5.888;2023-04-03T01:46:20;2.83;;;0.47;;
37641;SDS011;23486;51.956;5.888;2023-04-03T01:48:46;4.40;;;0.70;;
37641;SDS011;23486;51.956;5.888;2023-04-03T01:51:22;4.90;;;0.50;;
37641;SDS011;23486;51.956;5.888;2023-04-03T01:53:50;3.88;;;0.98;;
37641;SDS011;23486;51.956;5.888;2023-04-03T01:56:16;3.13;;;0.40;;
37641;SDS011;23486;51.956;5.888;2023-04-03T01:58:42;3.83;;;0.45;;
37641;SDS011;23486;51.956;5.888;2023-04-03T02:01:07;3.97;;;0.60;;
37641;SDS011;23486;51.956;5.888;2023-04-03T02:03:36;5.55;;;0.60;;
37641;SDS011;23486;51.956;5.888;2023-04-03T02:06:01;3.28;;;0.73;;
37641;SDS011;23486;51.956;5.888;2023-04-03T02:08:33;3.35;;;1.00;;
37641;SDS011;23486;51.956;5.888;2023-04-03T02:11:01;3.50;;;0.60;;
37641;SDS011;23486;51.956;5.888;2023-04-03T02:13:27;5.97;;;0.75;;
37641;SDS011;23486;51.956;5.888;2023-04-03T02:15:53;6.22;;;0.63;;
37641;SDS011;23486;51.956;5.888;2023-04-03T02:18:18;5.75;;;0.70;;
37641;SDS011;23486;51.956;5.888;2023-04-03T02:20:44;4.63;;;0.60;;
37641;SDS011;23486;51.956;5.888;2023-04-03T02:23:11;4.35;;;0.47;;
37641;SDS011;23486;51.956;5.888;2023-04-03T02:25:36;2.78;;;0.50;;
37641;SDS011;23486;51.956;5.888;2023-04-03T02:28:02;2.83;;;0.50;;
37641;SDS011;23486;51.956;5.888;2023-04-03T02:30:28;4.28;;;0.60;;
37641;SDS011;23486;51.956;5.888;2023-04-03T02:32:53;3.58;;;0.50;;
37641;SDS011;23486;51.956;5.888;2023-04-03T02:35:21;3.30;;;0.80;;
37641;SDS011;23486;51.956;5.888;2023-04-03T02:37:47;3.17;;;0.65;;
37641;SDS011;23486;51.956;5.888;2023-04-03T02:40:13;4.00;;;0.65;;
37641;SDS011;23486;51.956;5.888;2023-04-03T02:42:38;3.47;;;0.55;;
37641;SDS011;23486;51.956;5.888;2023-04-03T02:45:04;2.58;;;0.52;;
37641;SDS011;23486;51.956;5.888;2023-04-03T02:47:30;3.55;;;0.52;;
37641;SDS011;23486;51.956;5.888;2023-04-03T02:49:56;3.40;;;0.50;;
37641;SDS011;23486;51.956;5.888;2023-04-03T02:52:21;6.03;;;0.60;;
37641;SDS011;23486;51.956;5.888;2023-04-03T02:54:47;4.97;;;0.70;;
37641;SDS011;23486;51.956;5.888;2023-04-03T02:57:13;4.18;;;0.88;;
37641;SDS011;23486;51.956;5.888;2023-04-03T02:59:38;2.15;;;0.45;;
37641;SDS011;23486;51.956;5.888;2023-04-03T03:02:06;7.28;;;0.65;;
37641;SDS011;23486;51.956;5.888;2023-04-03T03:04:32;4.53;;;0.73;;
37641;SDS011;23486;51.956;5.888;2023-04-03T03:06:58;4.28;;;0.63;;
37641;SDS011;23486;51.956;5.888;2023-04-03T03:09:23;3.97;;;0.70;;
37641;SDS011;23486;51.956;5.888;2023-04-03T03:11:50;3.08;;;0.60;;
37641;SDS011;23486;51.956;5.888;2023-04-03T03:14:15;1.85;;;0.47;;
37641;SDS011;23486;51.956;5.888;2023-04-03T03:16:41;4.65;;;0.63;;
37641;SDS011;23486;51.956;5.888;2023-04-03T03:19:06;7.82;;;1.13;;
37641;SDS011;23486;51.956;5.888;2023-04-03T03:21:32;3.70;;;0.57;;
37641;SDS011;23486;51.956;5.888;2023-04-03T03:23:57;4.30;;;0.90;;
37641;SDS011;23486;51.956;5.888;2023-04-03T03:26:23;4.30;;;0.73;;
37641;SDS011;23486;51.956;5.888;2023-04-03T03:28:49;2.55;;;0.60;;
37641;SDS011;23486;51.956;5.888;2023-04-03T03:31:18;5.65;;;0.73;;
37641;SDS011;23486;51.956;5.888;2023-04-03T03:33:44;7.13;;;0.90;;
37641;SDS011;23486;51.956;5.888;2023-04-03T03:36:10;3.45;;;0.75;;
37641;SDS011;23486;51.956;5.888;2023-04-03T03:38:35;4.90;;;0.88;;
37641;SDS011;23486;51.956;5.888;2023-04-03T03:41:01;2.30;;;0.68;;
37641;SDS011;23486;51.956;5.888;2023-04-03T03:43:27;5.60;;;0.60;;
37641;SDS011;23486;51.956;5.888;2023-04-03T03:45:54;5.40;;;0.82;;
37641;SDS011;23486;51.956;5.888;2023-04-03T03:48:20;4.22;;;0.55;;
37641;SDS011;23486;51.956;5.888;2023-04-03T03:50:46;7.13;;;0.90;;
37641;SDS011;23486;51.956;5.888;2023-04-03T03:53:13;6.07;;;0.73;;
37641;SDS011;23486;51.956;5.888;2023-04-03T03:55:41;6.32;;;0.93;;
37641;SDS011;23486;51.956;5.888;2023-04-03T03:58:07;5.20;;;0.85;;
37641;SDS011;23486;51.956;5.888;2023-04-03T04:00:33;7.30;;;0.75;;
37641;SDS011;23486;51.956;5.888;2023-04-03T04:03:01;5.32;;;0.65;;
37641;SDS011;23486;51.956;5.888;2023-04-03T04:05:27;6.75;;;0.85;;
37641;SDS011;23486;51.956;5.888;2023-04-03T04:07:53;7.72;;;0.75;;
37641;SDS011;23486;51.956;5.888;2023-04-03T04:10:18;6.90;;;0.95;;
37641;SDS011;23486;51.956;5.888;2023-04-03T04:12:44;9.50;;;0.65;;
37641;SDS011;23486;51.956;5.888;2023-04-03T04:15:10;6.50;;;0.85;;
37641;SDS011;23486;51.956;5.888;2023-04-03T04:17:36;3.70;;;0.50;;
37641;SDS011;23486;51.956;5.888;2023-04-03T04:20:04;2.75;;;0.60;;
37641;SDS011;23486;51.956;5.888;2023-04-03T04:22:30;4.50;;;1.05;;
37641;SDS011;23486;51.956;5.888;2023-04-03T04:24:56;3.33;;;0.90;;
37641;SDS011;23486;51.956;5.888;2023-04-03T04:27:24;3.85;;;0.70;;
37641;SDS011;23486;51.956;5.888;2023-04-03T04:29:53;7.85;;;1.27;;
37641;SDS011;23486;51.956;5.888;2023-04-03T04:32:18;4.10;;;0.65;;
37641;SDS011;23486;51.956;5.888;2023-04-03T04:34:44;7.38;;;1.10;;
37641;SDS011;23486;51.956;5.888;2023-04-03T04:37:10;3.92;;;0.70;;
37641;SDS011;23486;51.956;5.888;2023-04-03T04:39:35;7.32;;;0.80;;
37641;SDS011;23486;51.956;5.888;2023-04-03T04:42:01;5.25;;;0.90;;
37641;SDS011;23486;51.956;5.888;2023-04-03T04:44:27;5.47;;;1.17;;
37641;SDS011;23486;51.956;5.888;2023-04-03T04:46:52;5.60;;;1.10;;
37641;SDS011;23486;51.956;5.888;2023-04-03T04:49:18;6.07;;;0.95;;
37641;SDS011;23486;51.956;5.888;2023-04-03T04:51:44;9.85;;;0.98;;
37641;SDS011;23486;51.956;5.888;2023-04-03T04:54:09;4.57;;;1.05;;
37641;SDS011;23486;51.956;5.888;2023-04-03T04:56:35;5.55;;;0.60;;
37641;SDS011;23486;51.956;5.888;2023-04-03T04:59:01;4.65;;;0.82;;
37641;SDS011;23486;51.956;5.888;2023-04-03T05:01:26;7.45;;;1.17;;
37641;SDS011;23486;51.956;5.888;2023-04-03T05:03:52;7.80;;;0.80;;
37641;SDS011;23486;51.956;5.888;2023-04-03T05:06:18;6.25;;;0.90;;
37641;SDS011;23486;51.956;5.888;2023-04-03T05:08:44;7.22;;;0.98;;
37641;SDS011;23486;51.956;5.888;2023-04-03T05:11:09;8.25;;;1.02;;
37641;SDS011;23486;51.956;5.888;2023-04-03T05:13:35;6.60;;;0.90;;
37641;SDS011;23486;51.956;5.888;2023-04-03T05:16:00;7.63;;;0.95;;
37641;SDS011;23486;51.956;5.888;2023-04-03T05:18:26;4.90;;;0.70;;
37641;SDS011;23486;51.956;5.888;2023-04-03T05:20:51;7.53;;;1.10;;
37641;SDS011;23486;51.956;5.888;2023-04-03T05:23:17;5.93;;;1.13;;
37641;SDS011;23486;51.956;5.888;2023-04-03T05:25:44;10.60;;;1.17;;
37641;SDS011;23486;51.956;5.888;2023-04-03T05:28:11;5.47;;;1.63;;
37641;SDS011;23486;51.956;5.888;2023-04-03T05:30:37;5.85;;;0.60;;
37641;SDS011;23486;51.956;5.888;2023-04-03T05:33:03;6.70;;;1.05;;
37641;SDS011;23486;51.956;5.888;2023-04-03T05:35:28;9.35;;;0.90;;
37641;SDS011;23486;51.956;5.888;2023-04-03T05:37:54;6.15;;;0.88;;
37641;SDS011;23486;51.956;5.888;2023-04-03T05:40:20;7.78;;;0.98;;
37641;SDS011;23486;51.956;5.888;2023-04-03T05:42:46;7.28;;;0.80;;
37641;SDS011;23486;51.956;5.888;2023-04-03T05:45:11;4.47;;;0.80;;
37641;SDS011;23486;51.956;5.888;2023-04-03T05:47:37;5.30;;;1.00;;
37641;SDS011;23486;51.956;5.888;2023-04-03T05:50:05;7.50;;;1.02;;
37641;SDS011;23486;51.956;5.888;2023-04-03T05:52:38;9.23;;;0.70;;
37641;SDS011;23486;51.956;5.888;2023-04-03T05:55:08;5.00;;;0.75;;
37641;SDS011;23486;51.956;5.888;2023-04-03T05:57:33;4.60;;;0.80;;
37641;SDS011;23486;51.956;5.888;2023-04-03T05:59:59;8.98;;;1.00;;
37641;SDS011;23486;51.956;5.888;2023-04-03T06:02:25;5.70;;;0.82;;
37641;SDS011;23486;51.956;5.888;2023-04-03T06:04:51;7.50;;;1.05;;
37641;SDS011;23486;51.956;5.888;2023-04-03T06:07:20;8.30;;;0.82;;
37641;SDS011;23486;51.956;5.888;2023-04-03T06:09:48;9.35;;;1.25;;
37641;SDS011;23486;51.956;5.888;2023-04-03T06:12:14;6.38;;;0.75;;
37641;SDS011;23486;51.956;5.888;2023-04-03T06:14:40;5.70;;;0.70;;
37641;SDS011;23486;51.956;5.888;2023-04-03T06:17:06;6.63;;;0.80;;
37641;SDS011;23486;51.956;5.888;2023-04-03T06:19:33;7.70;;;1.13;;
37641;SDS011;23486;51.956;5.888;2023-04-03T06:22:00;4.97;;;0.75;;
37641;SDS011;23486;51.956;5.888;2023-04-03T06:24:25;4.70;;;0.82;;
37641;SDS011;23486;51.956;5.888;2023-04-03T06:26:51;5.55;;;0.82;;
37641;SDS011;23486;51.956;5.888;2023-04-03T06:29:17;4.88;;;1.05;;
37641;SDS011;23486;51.956;5.888;2023-04-03T06:31:45;4.75;;;0.80;;
37641;SDS011;23486;51.956;5.888;2023-04-03T06:34:11;8.00;;;0.85;;
37641;SDS011;23486;51.956;5.888;2023-04-03T06:36:37;6.45;;;0.90;;
37641;SDS011;23486;51.956;5.888;2023-04-03T06:39:03;4.20;;;0.95;;
37641;SDS011;23486;51.956;5.888;2023-04-03T06:41:29;4.32;;;0.95;;
37641;SDS011;23486;51.956;5.888;2023-04-03T06:43:55;3.08;;;0.85;;
37641;SDS011;23486;51.956;5.888;2023-04-03T06:46:22;5.43;;;0.80;;
37641;SDS011;23486;51.956;5.888;2023-04-03T06:48:49;5.15;;;0.65;;
37641;SDS011;23486;51.956;5.888;2023-04-03T06:51:19;8.85;;;0.82;;
37641;SDS011;23486;51.956;5.888;2023-04-03T06:53:46;5.32;;;1.30;;
37641;SDS011;23486;51.956;5.888;2023-04-03T06:56:12;7.50;;;1.08;;
37641;SDS011;23486;51.956;5.888;2023-04-03T06:58:41;6.93;;;1.02;;
37641;SDS011;23486;51.956;5.888;2023-04-03T07:01:08;8.30;;;1.10;;
37641;SDS011;23486;51.956;5.888;2023-04-03T07:03:38;7.93;;;1.27;;
37641;SDS011;23486;51.956;5.888;2023-04-03T07:06:04;4.85;;;0.85;;
37641;SDS011;23486;51.956;5.888;2023-04-03T07:08:32;6.18;;;0.95;;
37641;SDS011;23486;51.956;5.888;2023-04-03T07:10:58;3.97;;;0.73;;
37641;SDS011;23486;51.956;5.888;2023-04-03T07:13:28;4.30;;;0.73;;
37641;SDS011;23486;51.956;5.888;2023-04-03T07:15:54;5.40;;;0.70;;
37641;SDS011;23486;51.956;5.888;2023-04-03T07:18:20;5.97;;;1.08;;
37641;SDS011;23486;51.956;5.888;2023-04-03T07:20:46;5.38;;;0.90;;
37641;SDS011;23486;51.956;5.888;2023-04-03T07:23:12;6.72;;;0.80;;
37641;SDS011;23486;51.956;5.888;2023-04-03T07:25:44;6.13;;;0.70;;
37641;SDS011;23486;51.956;5.888;2023-04-03T07:28:14;6.63;;;0.73;;
37641;SDS011;23486;51.956;5.888;2023-04-03T07:30:54;4.40;;;0.70;;
37641;SDS011;23486;51.956;5.888;2023-04-03T07:33:24;5.82;;;0.82;;
37641;SDS011;23486;51.956;5.888;2023-04-03T07:35:53;6.38;;;0.88;;
37641;SDS011;23486;51.956;5.888;2023-04-03T07:38:19;3.67;;;0.75;;
37641;SDS011;23486;51.956;5.888;2023-04-03T07:40:47;11.32;;;0.90;;
37641;SDS011;23486;51.956;5.888;2023-04-03T07:43:14;4.53;;;0.70;;
37641;SDS011;23486;51.956;5.888;2023-04-03T07:45:41;6.75;;;0.80;;
37641;SDS011;23486;51.956;5.888;2023-04-03T07:48:08;6.65;;;0.80;;
37641;SDS011;23486;51.956;5.888;2023-04-03T07:50:37;6.95;;;1.02;;
37641;SDS011;23486;51.956;5.888;2023-04-03T07:53:05;5.05;;;0.50;;
37641;SDS011;23486;51.956;5.888;2023-04-03T07:55:31;3.50;;;0.60;;
37641;SDS011;23486;51.956;5.888;2023-04-03T07:57:57;4.68;;;0.63;;
37641;SDS011;23486;51.956;5.888;2023-04-03T08:00:22;4.22;;;0.57;;
37641;SDS011;23486;51.956;5.888;2023-04-03T08:02:49;5.00;;;0.68;;
37641;SDS011;23486;51.956;5.888;2023-04-03T08:05:19;5.57;;;0.85;;
37641;SDS011;23486;51.956;5.888;2023-04-03T08:07:48;7.80;;;0.70;;
37641;SDS011;23486;51.956;5.888;2023-04-03T08:10:14;5.65;;;0.55;;
37641;SDS011;23486;51.956;5.888;2023-04-03T08:12:40;2.22;;;0.50;;
37641;SDS011;23486;51.956;5.888;2023-04-03T08:15:07;3.38;;;0.60;;
37641;SDS011;23486;51.956;5.888;2023-04-03T08:17:36;5.03;;;0.60;;
37641;SDS011;23486;51.956;5.888;2023-04-03T08:20:05;5.05;;;0.50;;
37641;SDS011;23486;51.956;5.888;2023-04-03T08:22:32;7.03;;;0.50;;
37641;SDS011;23486;51.956;5.888;2023-04-03T08:24:58;4.55;;;0.55;;
37641;SDS011;23486;51.956;5.888;2023-04-03T08:27:23;4.25;;;0.40;;
37641;SDS011;23486;51.956;5.888;2023-04-03T08:29:49;5.80;;;0.60;;
37641;SDS011;23486;51.956;5.888;2023-04-03T08:32:16;6.78;;;0.50;;
37641;SDS011;23486;51.956;5.888;2023-04-03T08:34:48;3.65;;;0.50;;
37641;SDS011;23486;51.956;5.888;2023-04-03T08:37:13;3.38;;;0.30;;
37641;SDS011;23486;51.956;5.888;2023-04-03T08:39:41;3.28;;;0.40;;
37641;SDS011;23486;51.956;5.888;2023-04-03T08:44:59;4.47;;;0.60;;
37641;SDS011;23486;51.956;5.888;2023-04-03T08:47:48;5.43;;;0.40;;
37641;SDS011;23486;51.956;5.888;2023-04-03T08:50:40;2.10;;;0.32;;
37641;SDS011;23486;51.956;5.888;2023-04-03T08:53:15;3.70;;;0.30;;
37641;SDS011;23486;51.956;5.888;2023-04-03T08:55:46;3.88;;;0.30;;
37641;SDS011;23486;51.956;5.888;2023-04-03T08:58:16;1.55;;;0.28;;
37641;SDS011;23486;51.956;5.888;2023-04-03T09:03:43;3.13;;;0.40;;
37641;SDS011;23486;51.956;5.888;2023-04-03T09:06:13;2.45;;;0.32;;
37641;SDS011;23486;51.956;5.888;2023-04-03T09:08:47;2.03;;;0.20;;
37641;SDS011;23486;51.956;5.888;2023-04-03T09:11:52;2.30;;;0.20;;
37641;SDS011;23486;51.956;5.888;2023-04-03T09:14:19;1.88;;;0.25;;
37641;SDS011;23486;51.956;5.888;2023-04-03T09:17:09;3.50;;;0.30;;
37641;SDS011;23486;51.956;5.888;2023-04-03T09:22:20;1.15;;;0.20;;
37641;SDS011;23486;51.956;5.888;2023-04-03T09:25:10;2.80;;;0.13;;
37641;SDS011;23486;51.956;5.888;2023-04-03T09:27:43;1.55;;;0.10;;
37641;SDS011;23486;51.956;5.888;2023-04-03T09:30:16;2.92;;;0.20;;
37641;SDS011;23486;51.956;5.888;2023-04-03T09:32:47;2.25;;;0.20;;
37641;SDS011;23486;51.956;5.888;2023-04-03T09:35:16;2.38;;;0.20;;
37641;SDS011;23486;51.956;5.888;2023-04-03T09:42:57;0.90;;;0.20;;
37641;SDS011;23486;51.956;5.888;2023-04-03T09:45:41;2.05;;;0.10;;
37641;SDS011;23486;51.956;5.888;2023-04-03T09:55:59;2.13;;;0.20;;
37641;SDS011;23486;51.956;5.888;2023-04-03T10:00:57;1.75;;;0.10;;
37641;SDS011;23486;51.956;5.888;2023-04-03T10:03:29;1.38;;;0.10;;
37641;SDS011;23486;51.956;5.888;2023-04-03T10:05:55;3.42;;;0.20;;
37641;SDS011;23486;51.956;5.888;2023-04-03T10:08:24;0.68;;;0.10;;
37641;SDS011;23486;51.956;5.888;2023-04-03T10:11:05;1.10;;;0.30;;
37641;SDS011;23486;51.956;5.888;2023-04-03T10:13:31;2.38;;;0.20;;
37641;SDS011;23486;51.956;5.888;2023-04-03T10:16:07;3.17;;;0.20;;
37641;SDS011;23486;51.956;5.888;2023-04-03T10:18:40;1.17;;;0.20;;
37641;SDS011;23486;51.956;5.888;2023-04-03T10:24:06;1.38;;;0.20;;
37641;SDS011;23486;51.956;5.888;2023-04-03T10:26:57;1.88;;;0.20;;
37641;SDS011;23486;51.956;5.888;2023-04-03T10:32:28;2.03;;;0.20;;
37641;SDS011;23486;51.956;5.888;2023-04-03T10:40:47;9.95;;;0.30;;
37641;SDS011;23486;51.956;5.888;2023-04-03T10:44:04;0.47;;;0.10;;
37641;SDS011;23486;51.956;5.888;2023-04-03T10:46:43;3.95;;;0.20;;
37641;SDS011;23486;51.956;5.888;2023-04-03T10:52:50;3.33;;;0.22;;
37641;SDS011;23486;51.956;5.888;2023-04-03T10:57:47;2.47;;;0.20;;
37641;SDS011;23486;51.956;5.888;2023-04-03T11:00:15;1.63;;;0.20;;
37641;SDS011;23486;51.956;5.888;2023-04-03T11:02:49;2.67;;;0.30;;
37641;SDS011;23486;51.956;5.888;2023-04-03T11:08:17;0.60;;;0.10;;
37641;SDS011;23486;51.956;5.888;2023-04-03T11:11:04;1.58;;;0.20;;
37641;SDS011;23486;51.956;5.888;2023-04-03T11:13:34;3.10;;;0.30;;
37641;SDS011;23486;51.956;5.888;2023-04-03T11:16:07;1.02;;;0.20;;
37641;SDS011;23486;51.956;5.888;2023-04-03T11:21:07;0.90;;;0.22;;
37641;SDS011;23486;51.956;5.888;2023-04-03T11:23:39;0.73;;;0.20;;
37641;SDS011;23486;51.956;5.888;2023-04-03T11:26:12;0.90;;;0.10;;
37641;SDS011;23486;51.956;5.888;2023-04-03T11:28:40;1.75;;;0.10;;
37641;SDS011;23486;51.956;5.888;2023-04-03T11:33:42;0.98;;;0.20;;
37641;SDS011;23486;51.956;5.888;2023-04-03T11:36:26;2.42;;;0.30;;
37641;SDS011;23486;51.956;5.888;2023-04-03T11:39:00;1.90;;;0.20;;
37641;SDS011;23486;51.956;5.888;2023-04-03T11:41:32;2.20;;;0.20;;
37641;SDS011;23486;51.956;5.888;2023-04-03T11:44:03;2.50;;;0.15;;
37641;SDS011;23486;51.956;5.888;2023-04-03T12:16:23;4.32;;;0.20;;
37641;SDS011;23486;51.956;5.888;2023-04-03T12:29:15;0.95;;;0.20;;
37641;SDS011;23486;51.956;5.888;2023-04-03T12:38:17;2.88;;;0.30;;
37641;SDS011;23486;51.956;5.888;2023-04-03T12:44:07;2.95;;;0.30;;
37641;SDS011;23486;51.956;5.888;2023-04-03T12:46:42;2.05;;;0.57;;
37641;SDS011;23486;51.956;5.888;2023-04-03T12:49:55;3.08;;;0.40;;
37641;SDS011;23486;51.956;5.888;2023-04-03T12:52:17;2.10;;;0.30;;
37641;SDS011;23486;51.956;5.888;2023-04-03T12:54:44;2.83;;;0.30;;
37641;SDS011;23486;51.956;5.888;2023-04-03T12:57:12;1.45;;;0.30;;
37641;SDS011;23486;51.956;5.888;2023-04-03T12:59:38;1.30;;;0.30;;
37641;SDS011;23486;51.956;5.888;2023-04-03T13:02:08;2.78;;;0.30;;
37641;SDS011;23486;51.956;5.888;2023-04-03T13:04:42;2.40;;;0.38;;
37641;SDS011;23486;51.956;5.888;2023-04-03T13:07:31;2.33;;;0.20;;
37641;SDS011;23486;51.956;5.888;2023-04-03T13:12:33;1.90;;;0.28;;
37641;SDS011;23486;51.956;5.888;2023-04-03T13:15:11;3.13;;;0.30;;
37641;SDS011;23486;51.956;5.888;2023-04-03T13:17:41;2.65;;;0.20;;
37641;SDS011;23486;51.956;5.888;2023-04-03T13:20:16;2.33;;;0.30;;
37641;SDS011;23486;51.956;5.888;2023-04-03T13:22:54;1.85;;;0.20;;
37641;SDS011;23486;51.956;5.888;2023-04-03T13:25:25;4.88;;;0.30;;
37641;SDS011;23486;51.956;5.888;2023-04-03T13:27:52;2.28;;;0.40;;
37641;SDS011;23486;51.956;5.888;2023-04-03T13:30:29;3.33;;;0.40;;
37641;SDS011;23486;51.956;5.888;2023-04-03T13:32:58;2.15;;;0.30;;
37641;SDS011;23486;51.956;5.888;2023-04-03T13:37:54;3.05;;;0.60;;
37641;SDS011;23486;51.956;5.888;2023-04-03T13:40:21;4.40;;;0.20;;
37641;SDS011;23486;51.956;5.888;2023-04-03T13:42:57;3.50;;;0.30;;
37641;SDS011;23486;51.956;5.888;2023-04-03T13:45:25;2.40;;;0.40;;
37641;SDS011;23486;51.956;5.888;2023-04-03T13:48:05;4.32;;;0.30;;
37641;SDS011;23486;51.956;5.888;2023-04-03T13:50:48;1.73;;;0.28;;
37641;SDS011;23486;51.956;5.888;2023-04-03T13:53:26;2.42;;;0.30;;
37641;SDS011;23486;51.956;5.888;2023-04-03T13:58:22;1.95;;;0.32;;
37641;SDS011;23486;51.956;5.888;2023-04-03T14:01:00;2.45;;;0.30;;
37641;SDS011;23486;51.956;5.888;2023-04-03T14:06:13;2.50;;;0.30;;
37641;SDS011;23486;51.956;5.888;2023-04-03T14:08:41;2.08;;;0.50;;
37641;SDS011;23486;51.956;5.888;2023-04-03T14:11:13;3.25;;;0.40;;
37641;SDS011;23486;51.956;5.888;2023-04-03T14:13:44;3.88;;;0.35;;
37641;SDS011;23486;51.956;5.888;2023-04-03T14:16:21;2.72;;;0.30;;
37641;SDS011;23486;51.956;5.888;2023-04-03T14:18:50;2.42;;;0.30;;
37641;SDS011;23486;51.956;5.888;2023-04-03T14:21:17;3.47;;;0.32;;
37641;SDS011;23486;51.956;5.888;2023-04-03T14:23:44;2.33;;;0.30;;
37641;SDS011;23486;51.956;5.888;2023-04-03T14:26:13;2.05;;;0.30;;
37641;SDS011;23486;51.956;5.888;2023-04-03T14:28:46;3.22;;;0.40;;
37641;SDS011;23486;51.956;5.888;2023-04-03T14:31:13;2.42;;;0.35;;
37641;SDS011;23486;51.956;5.888;2023-04-03T14:33:40;2.08;;;0.30;;
37641;SDS011;23486;51.956;5.888;2023-04-03T14:38:56;2.65;;;0.35;;
37641;SDS011;23486;51.956;5.888;2023-04-03T14:41:23;4.07;;;0.38;;
37641;SDS011;23486;51.956;5.888;2023-04-03T14:43:51;2.80;;;0.30;;
37641;SDS011;23486;51.956;5.888;2023-04-03T14:46:18;2.65;;;0.40;;
37641;SDS011;23486;51.956;5.888;2023-04-03T14:48:59;2.95;;;0.30;;
37641;SDS011;23486;51.956;5.888;2023-04-03T14:51:25;2.67;;;0.40;;
37641;SDS011;23486;51.956;5.888;2023-04-03T14:53:54;2.42;;;0.30;;
37641;SDS011;23486;51.956;5.888;2023-04-03T14:56:23;2.90;;;0.45;;
37641;SDS011;23486;51.956;5.888;2023-04-03T14:58:52;2.72;;;0.50;;
37641;SDS011;23486;51.956;5.888;2023-04-03T15:01:25;1.40;;;0.30;;
37641;SDS011;23486;51.956;5.888;2023-04-03T15:03:52;3.65;;;0.50;;
37641;SDS011;23486;51.956;5.888;2023-04-03T15:06:18;3.17;;;0.30;;
37641;SDS011;23486;51.956;5.888;2023-04-03T15:08:45;3.65;;;0.32;;
37641;SDS011;23486;51.956;5.888;2023-04-03T15:11:12;2.08;;;0.40;;
37641;SDS011;23486;51.956;5.888;2023-04-03T15:13:39;1.42;;;0.20;;
37641;SDS011;23486;51.956;5.888;2023-04-03T15:16:12;2.70;;;0.40;;
37641;SDS011;23486;51.956;5.888;2023-04-03T15:18:43;2.42;;;0.50;;
37641;SDS011;23486;51.956;5.888;2023-04-03T15:21:10;2.45;;;0.30;;
37641;SDS011;23486;51.956;5.888;2023-04-03T15:23:36;2.72;;;0.40;;
37641;SDS011;23486;51.956;5.888;2023-04-03T15:26:02;1.73;;;0.40;;
37641;SDS011;23486;51.956;5.888;2023-04-03T15:28:40;2.55;;;0.50;;
37641;SDS011;23486;51.956;5.888;2023-04-03T15:31:07;2.80;;;0.40;;
37641;SDS011;23486;51.956;5.888;2023-04-03T15:33:33;2.72;;;0.38;;
37641;SDS011;23486;51.956;5.888;2023-04-03T15:36:00;1.88;;;0.28;;
37641;SDS011;23486;51.956;5.888;2023-04-03T15:38:25;3.20;;;0.30;;
37641;SDS011;23486;51.956;5.888;2023-04-03T15:40:51;2.70;;;0.30;;
37641;SDS011;23486;51.956;5.888;2023-04-03T15:43:17;2.95;;;0.32;;
37641;SDS011;23486;51.956;5.888;2023-04-03T15:45:43;4.40;;;0.50;;
37641;SDS011;23486;51.956;5.888;2023-04-03T15:48:10;2.58;;;0.35;;
37641;SDS011;23486;51.956;5.888;2023-04-03T15:50:37;5.13;;;0.57;;
37641;SDS011;23486;51.956;5.888;2023-04-03T15:53:03;2.72;;;0.40;;
37641;SDS011;23486;51.956;5.888;2023-04-03T15:55:30;2.40;;;0.40;;
37641;SDS011;23486;51.956;5.888;2023-04-03T15:57:57;2.30;;;0.40;;
37641;SDS011;23486;51.956;5.888;2023-04-03T16:00:23;2.30;;;0.30;;
37641;SDS011;23486;51.956;5.888;2023-04-03T16:02:50;2.20;;;0.43;;
37641;SDS011;23486;51.956;5.888;2023-04-03T16:05:20;2.55;;;0.30;;
37641;SDS011;23486;51.956;5.888;2023-04-03T16:07:46;3.38;;;0.40;;
37641;SDS011;23486;51.956;5.888;2023-04-03T16:10:13;2.78;;;0.52;;
37641;SDS011;23486;51.956;5.888;2023-04-03T16:12:40;3.40;;;0.40;;
37641;SDS011;23486;51.956;5.888;2023-04-03T16:15:12;5.95;;;0.50;;
37641;SDS011;23486;51.956;5.888;2023-04-03T16:17:38;3.95;;;0.50;;
37641;SDS011;23486;51.956;5.888;2023-04-03T16:20:05;3.97;;;0.38;;
37641;SDS011;23486;51.956;5.888;2023-04-03T16:22:32;2.25;;;0.50;;
37641;SDS011;23486;51.956;5.888;2023-04-03T16:24:58;3.95;;;0.32;;
37641;SDS011;23486;51.956;5.888;2023-04-03T16:27:23;2.20;;;0.38;;
37641;SDS011;23486;51.956;5.888;2023-04-03T16:29:53;2.83;;;0.50;;
37641;SDS011;23486;51.956;5.888;2023-04-03T16:32:19;3.60;;;0.40;;
37641;SDS011;23486;51.956;5.888;2023-04-03T16:34:45;3.50;;;0.40;;
37641;SDS011;23486;51.956;5.888;2023-04-03T16:37:11;3.20;;;0.43;;
37641;SDS011;23486;51.956;5.888;2023-04-03T16:39:36;3.25;;;0.52;;
37641;SDS011;23486;51.956;5.888;2023-04-03T16:42:05;1.83;;;0.40;;
37641;SDS011;23486;51.956;5.888;2023-04-03T16:44:31;3.42;;;0.70;;
37641;SDS011;23486;51.956;5.888;2023-04-03T16:46:59;2.03;;;0.30;;
37641;SDS011;23486;51.956;5.888;2023-04-03T16:49:25;3.40;;;0.40;;
37641;SDS011;23486;51.956;5.888;2023-04-03T16:51:52;1.95;;;0.30;;
37641;SDS011;23486;51.956;5.888;2023-04-03T16:54:18;1.92;;;0.32;;
37641;SDS011;23486;51.956;5.888;2023-04-03T16:56:44;3.10;;;0.40;;